Terminal Aerodrome Forecast
Issued by NWS Des Moines, IA

Home | Current Version | Previous Version | Text Only | Print | Product List | Glossary On
Versions: 1 2 3 4 5 6 7 8 9 10 11 12 13 14 15 16 17 18 19 20 21 22 23 24 25 26 27 28 29 30 31 32 33 34 35 36 37 38 39 40 41 42 43 44
000
FTUS43 KDMX 222337
TAFDSM
TAF
KDSM 222337Z 2300/2324 11010KT 4SM -RA BR OVC003
     FM230600 04006KT 2SM -RA BR OVC004
     FM230900 32007KT 2SM -RASN BR OVC003
     FM231200 29008KT 2SM -SN BR OVC003
     FM231800 31010KT 4SM -SN BR OVC005
     FM232200 33010KT 5SM -SN BR OVC009=

USA.gov is the U.S. government's official web portal to all federal, state and local government web resources and services.